createdAt,value
2023-04-21T00:00:53.949Z,18.82
2023-04-21T00:03:22.575Z,18.69
2023-04-21T00:05:50.674Z,19.43
2023-04-21T00:08:18.600Z,19.54
2023-04-21T00:10:46.660Z,19.51
2023-04-21T00:13:13.719Z,19.46
2023-04-21T00:15:40.620Z,19.82
2023-04-21T00:18:07.308Z,20.02
2023-04-21T00:20:33.929Z,20.27
2023-04-21T00:23:00.550Z,20.68
2023-04-21T00:25:27.118Z,20.29
2023-04-21T00:27:53.735Z,20.76
2023-04-21T00:30:20.411Z,20.94
2023-04-21T00:32:47.133Z,21.70
2023-04-21T00:35:13.897Z,22.40
2023-04-21T00:37:41.544Z,22.35
2023-04-21T00:40:09.061Z,22.65
2023-04-21T00:42:35.810Z,22.58
2023-04-21T00:45:03.866Z,23.50
2023-04-21T00:47:31.057Z,23.52
2023-04-21T00:49:58.916Z,23.61
2023-04-21T00:52:26.790Z,24.06
2023-04-21T00:54:54.102Z,23.94
2023-04-21T00:57:21.036Z,23.70
2023-04-21T00:59:48.324Z,24.27
2023-04-21T01:02:16.664Z,24.35
2023-04-21T01:04:45.472Z,24.11
2023-04-21T01:07:12.746Z,24.09
2023-04-21T01:09:39.426Z,24.78
2023-04-21T01:12:07.055Z,25.73
2023-04-21T01:14:33.728Z,24.52
2023-04-21T01:17:00.411Z,24.62
2023-04-21T01:19:31.317Z,25.91
2023-04-21T01:22:00.584Z,25.00
2023-04-21T01:24:41.306Z,25.18
2023-04-21T01:27:12.800Z,25.11
2023-04-21T01:29:41.816Z,25.81
2023-04-21T01:32:12.228Z,25.93
2023-04-21T01:34:40.109Z,25.68
2023-04-21T01:37:13.949Z,25.69
2023-04-21T01:39:43.482Z,25.67
2023-04-21T01:42:10.381Z,25.74
2023-04-21T01:44:37.340Z,26.18
2023-04-21T01:47:04.636Z,26.51
2023-04-21T01:49:31.153Z,26.66
2023-04-21T01:51:57.789Z,26.28
2023-04-21T01:54:24.398Z,26.96
2023-04-21T01:56:51.166Z,27.46
2023-04-21T01:59:18.050Z,26.62
2023-04-21T02:01:45.104Z,26.90
2023-04-21T02:04:11.848Z,26.85
2023-04-21T02:06:38.430Z,27.94
2023-04-21T02:09:05.300Z,26.81
2023-04-21T02:11:31.840Z,26.97
2023-04-21T02:13:58.621Z,27.83
2023-04-21T02:16:28.478Z,28.07
2023-04-21T02:18:57.005Z,27.80
2023-04-21T02:21:27.546Z,27.87
2023-04-21T02:23:54.274Z,27.82
2023-04-21T02:26:21.214Z,27.62
2023-04-21T02:28:47.972Z,26.88
2023-04-21T02:31:14.595Z,27.56
2023-04-21T02:33:41.458Z,28.71
2023-04-21T02:36:08.168Z,27.25
2023-04-21T02:38:34.808Z,27.74
2023-04-21T02:41:01.498Z,27.41
2023-04-21T02:43:28.068Z,27.54
2023-04-21T02:45:54.583Z,27.04
2023-04-21T02:48:23.067Z,27.40
2023-04-21T02:50:50.705Z,27.42
2023-04-21T02:53:17.293Z,27.50
2023-04-21T02:55:44.074Z,27.89
2023-04-21T02:58:10.978Z,27.61
2023-04-21T03:00:37.712Z,26.85
2023-04-21T03:03:04.469Z,27.44
2023-04-21T03:05:31.129Z,28.28
2023-04-21T03:07:57.666Z,27.38
2023-04-21T03:10:24.210Z,26.76
2023-04-21T03:12:50.740Z,27.03
2023-04-21T03:15:17.713Z,27.28
2023-04-21T03:17:44.406Z,27.70
2023-04-21T03:20:12.727Z,28.24
2023-04-21T03:22:39.418Z,28.07
2023-04-21T03:25:07.415Z,27.01
2023-04-21T03:27:34.715Z,27.67
2023-04-21T03:30:01.412Z,26.55
2023-04-21T03:32:28.109Z,27.21
2023-04-21T03:34:54.805Z,27.03
2023-04-21T03:37:21.340Z,26.73
2023-04-21T03:39:47.927Z,26.35
2023-04-21T03:42:14.530Z,26.44
2023-04-21T03:44:41.218Z,26.63
2023-04-21T03:47:07.794Z,27.00
2023-04-21T03:49:34.897Z,27.36
2023-04-21T03:52:01.685Z,27.00
2023-04-21T03:54:28.205Z,27.04
2023-04-21T03:56:54.736Z,26.94
2023-04-21T03:59:21.581Z,27.14
2023-04-21T04:01:48.233Z,26.64
2023-04-21T04:04:15.444Z,27.41
2023-04-21T04:06:42.245Z,26.78
2023-04-21T04:09:09.113Z,26.83
2023-04-21T04:11:35.920Z,27.44
2023-04-21T04:14:02.588Z,27.52
2023-04-21T04:16:29.400Z,27.82
2023-04-21T04:18:56.476Z,28.02
2023-04-21T04:21:23.090Z,27.94
2023-04-21T04:23:52.204Z,27.59
2023-04-21T04:26:25.109Z,28.52
2023-04-21T04:28:56.369Z,27.34
2023-04-21T04:31:25.469Z,27.76
2023-04-21T04:33:55.005Z,27.63
2023-04-21T04:36:22.541Z,27.21
2023-04-21T04:38:49.102Z,27.82
2023-04-21T04:41:19.468Z,27.58
2023-04-21T04:43:46.484Z,26.80
2023-04-21T04:46:13.365Z,28.21
2023-04-21T04:48:40.689Z,28.12
2023-04-21T04:51:07.615Z,27.13
2023-04-21T04:53:34.198Z,28.05
2023-04-21T04:56:00.944Z,27.88
2023-04-21T04:58:27.477Z,27.64
2023-04-21T05:00:54.419Z,27.67
2023-04-21T05:03:21.166Z,28.25
2023-04-21T05:05:47.922Z,28.11
2023-04-21T05:08:17.244Z,28.93
2023-04-21T05:10:44.607Z,29.27
2023-04-21T05:13:11.192Z,29.95
2023-04-21T05:15:37.737Z,30.82
2023-04-21T05:18:04.327Z,30.62
2023-04-21T05:20:30.928Z,30.76
2023-04-21T05:22:57.513Z,31.25
2023-04-21T05:25:24.081Z,30.67
2023-04-21T05:27:50.759Z,30.56
2023-04-21T05:30:17.369Z,31.72
2023-04-21T05:32:43.901Z,32.00
2023-04-21T05:35:10.677Z,31.70
2023-04-21T05:37:37.228Z,32.97
2023-04-21T05:40:03.931Z,33.18
2023-04-21T05:42:30.514Z,33.89
2023-04-21T05:44:58.019Z,33.75
2023-04-21T05:47:24.657Z,33.74
2023-04-21T05:49:53.466Z,33.67
2023-04-21T05:52:21.609Z,33.46
2023-04-21T05:54:48.330Z,34.78
2023-04-21T05:57:16.617Z,33.67
2023-04-21T05:59:43.777Z,33.63
2023-04-21T06:02:11.038Z,33.07
2023-04-21T06:04:37.911Z,33.55
2023-04-21T06:07:09.054Z,34.31
2023-04-21T06:09:36.284Z,34.14
2023-04-21T06:12:03.514Z,33.57
2023-04-21T06:14:30.271Z,34.05
2023-04-21T06:16:56.846Z,33.44
2023-04-21T06:19:23.743Z,33.93
2023-04-21T06:21:50.664Z,34.66
2023-04-21T06:24:24.397Z,33.41
2023-04-21T06:26:52.724Z,33.65
2023-04-21T06:29:19.953Z,33.35
2023-04-21T06:31:46.577Z,33.06
2023-04-21T06:34:13.246Z,34.55
2023-04-21T06:36:39.857Z,34.99
2023-04-21T06:39:06.524Z,35.52
2023-04-21T06:41:33.154Z,34.76
2023-04-21T06:43:59.730Z,35.64
2023-04-21T06:46:26.280Z,34.62
2023-04-21T06:48:52.920Z,34.41
2023-04-21T06:51:19.487Z,34.95
2023-04-21T06:53:46.068Z,35.41
2023-04-21T06:56:12.771Z,35.17
2023-04-21T06:58:39.363Z,35.46
2023-04-21T07:01:06.044Z,35.75
2023-04-21T07:03:32.768Z,35.49
2023-04-21T07:05:59.471Z,35.19
2023-04-21T07:08:26.250Z,36.55
2023-04-21T07:10:52.825Z,36.20
2023-04-21T07:13:19.563Z,35.60
2023-04-21T07:15:46.584Z,35.71
2023-04-21T07:18:13.217Z,35.44
2023-04-21T07:20:39.904Z,36.78
2023-04-21T07:23:06.610Z,35.63
2023-04-21T07:25:33.146Z,35.71
2023-04-21T07:27:59.747Z,36.35
2023-04-21T07:30:26.463Z,36.74
2023-04-21T07:32:53.134Z,36.21
2023-04-21T07:35:19.748Z,36.95
2023-04-21T07:37:46.433Z,37.02
2023-04-21T07:40:13.589Z,37.10
2023-04-21T07:42:40.232Z,37.76
2023-04-21T07:45:07.262Z,38.51
2023-04-21T07:47:34.003Z,38.02
2023-04-21T07:50:01.133Z,38.52
2023-04-21T07:52:27.709Z,37.84
2023-04-21T07:54:54.317Z,37.20
2023-04-21T07:57:20.959Z,37.37
2023-04-21T07:59:48.636Z,37.80
2023-04-21T08:02:15.384Z,37.42
2023-04-21T08:04:42.077Z,36.91
2023-04-21T08:07:10.075Z,36.62
2023-04-21T08:09:36.911Z,38.12
2023-04-21T08:12:03.539Z,36.36
2023-04-21T08:14:30.178Z,37.15
2023-04-21T08:16:57.428Z,37.47
2023-04-21T08:19:24.379Z,38.81
2023-04-21T08:21:51.226Z,38.64
2023-04-21T08:24:17.911Z,37.32
2023-04-21T08:26:44.991Z,38.36
2023-04-21T08:29:13.225Z,38.13
2023-04-21T08:31:40.341Z,37.59
2023-04-21T08:34:07.301Z,36.95
2023-04-21T08:36:34.068Z,37.48
2023-04-21T08:39:01.670Z,37.82
2023-04-21T08:41:28.296Z,37.01
2023-04-21T08:43:54.911Z,37.25
2023-04-21T08:46:23.837Z,37.24
2023-04-21T08:48:51.112Z,37.42
2023-04-21T08:51:22.981Z,38.31
2023-04-21T08:53:49.669Z,38.82
2023-04-21T08:56:16.664Z,39.05
2023-04-21T08:58:43.255Z,38.57
2023-04-21T09:01:09.820Z,38.58
2023-04-21T09:03:36.698Z,37.15
2023-04-21T09:06:09.641Z,38.93
2023-04-21T09:08:43.364Z,38.44
2023-04-21T09:11:14.399Z,40.99
2023-04-21T09:13:42.867Z,39.10
2023-04-21T09:16:18.485Z,37.86
2023-04-21T09:18:45.160Z,37.97
2023-04-21T09:21:17.413Z,39.07
2023-04-21T09:23:51.650Z,42.95
2023-04-21T09:26:20.262Z,41.00
2023-04-21T09:28:48.996Z,37.39
2023-04-21T09:31:21.019Z,35.58
2023-04-21T09:36:24.124Z,37.92
2023-04-21T09:41:32.032Z,33.22
2023-04-21T09:44:01.478Z,33.51
2023-04-21T09:46:30.723Z,32.79
2023-04-21T09:49:01.327Z,33.35
2023-04-21T09:51:49.083Z,34.13
2023-04-21T09:54:29.271Z,36.14
2023-04-21T09:57:01.722Z,35.71
2023-04-21T09:59:43.806Z,33.13
2023-04-21T10:02:13.261Z,32.95
2023-04-21T10:04:43.213Z,32.89
2023-04-21T10:07:10.892Z,34.24
2023-04-21T10:09:44.960Z,32.83
2023-04-21T10:12:13.486Z,33.15
2023-04-21T10:14:40.146Z,35.19
2023-04-21T10:17:08.386Z,35.05
2023-04-21T10:19:39.671Z,35.44
2023-04-21T10:22:08.475Z,35.12
2023-04-21T10:24:42.906Z,34.64
2023-04-21T10:27:13.350Z,34.39
2023-04-21T10:29:55.483Z,33.25
2023-04-21T10:32:43.045Z,33.42
2023-04-21T10:35:22.166Z,30.92
2023-04-21T10:37:51.400Z,32.23
2023-04-21T10:40:42.468Z,34.02
2023-04-21T10:43:45.912Z,34.36
2023-04-21T10:46:37.253Z,35.38
2023-04-21T10:49:10.218Z,35.69
2023-04-21T10:51:58.682Z,34.51
2023-04-21T10:54:26.863Z,35.30
2023-04-21T10:56:54.862Z,34.88
2023-04-21T10:59:22.282Z,34.55
2023-04-21T11:01:49.035Z,35.67
2023-04-21T11:04:16.486Z,34.22
2023-04-21T11:06:43.985Z,34.69
2023-04-21T11:09:10.645Z,35.98
2023-04-21T11:11:37.273Z,38.76
2023-04-21T11:14:03.863Z,38.55
2023-04-21T11:16:34.588Z,36.70
2023-04-21T11:19:01.119Z,36.05
2023-04-21T11:21:29.915Z,35.86
2023-04-21T11:23:57.848Z,34.96
2023-04-21T11:26:37.661Z,33.91
2023-04-21T11:29:08.828Z,34.27
2023-04-21T11:31:36.923Z,35.53
2023-04-21T11:34:05.314Z,34.95
2023-04-21T11:36:40.742Z,35.44
2023-04-21T11:39:10.012Z,36.00
2023-04-21T11:41:41.461Z,35.24
2023-04-21T11:44:08.957Z,35.22
2023-04-21T11:46:38.180Z,34.84
2023-04-21T11:49:11.604Z,33.70
2023-04-21T11:51:43.396Z,33.21
2023-04-21T11:54:14.459Z,33.65
2023-04-21T11:56:43.138Z,32.87
2023-04-21T11:59:26.476Z,33.42
2023-04-21T12:01:54.340Z,32.64
2023-04-21T12:04:25.912Z,32.55
2023-04-21T12:07:00.204Z,32.01
2023-04-21T12:09:27.664Z,31.90
2023-04-21T12:11:57.743Z,30.85
2023-04-21T12:14:26.942Z,29.26
2023-04-21T12:16:55.881Z,30.79
2023-04-21T12:19:36.443Z,30.63
2023-04-21T12:22:08.270Z,31.30
2023-04-21T12:24:36.716Z,30.74
2023-04-21T12:27:03.968Z,31.36
2023-04-21T12:29:30.616Z,30.42
2023-04-21T12:31:57.417Z,29.02
2023-04-21T12:34:24.081Z,28.81
2023-04-21T12:36:50.673Z,26.76
2023-04-21T12:39:18.736Z,26.70
2023-04-21T12:41:47.407Z,27.80
2023-04-21T12:44:14.514Z,27.12
2023-04-21T12:46:41.601Z,27.21
2023-04-21T12:49:09.922Z,28.17
2023-04-21T12:51:36.710Z,29.47
2023-04-21T12:54:04.573Z,29.42
2023-04-21T12:56:31.410Z,29.69
2023-04-21T12:58:58.463Z,30.16
2023-04-21T13:01:25.314Z,30.98
2023-04-21T13:03:52.110Z,30.61
2023-04-21T13:06:18.841Z,31.02
2023-04-21T13:08:45.412Z,32.33
2023-04-21T13:11:12.008Z,32.00
2023-04-21T13:13:39.471Z,31.26
2023-04-21T13:16:06.076Z,31.99
2023-04-21T13:18:34.800Z,31.97
2023-04-21T13:21:01.873Z,31.22
2023-04-21T13:23:28.660Z,31.63
2023-04-21T13:25:55.690Z,32.85
2023-04-21T13:28:22.852Z,32.60
2023-04-21T13:30:51.585Z,31.79
2023-04-21T13:33:19.286Z,33.19
2023-04-21T13:35:45.972Z,34.05
2023-04-21T13:38:12.816Z,36.18
2023-04-21T13:40:39.384Z,35.66
2023-04-21T13:43:05.912Z,35.84
2023-04-21T13:45:32.657Z,34.77
2023-04-21T13:47:59.314Z,34.36
2023-04-21T13:50:26.188Z,34.22
2023-04-21T13:52:52.710Z,33.78
2023-04-21T13:55:20.114Z,33.79
2023-04-21T13:57:46.867Z,31.84
2023-04-21T14:00:14.203Z,32.71
2023-04-21T14:02:41.985Z,32.16
2023-04-21T14:05:09.056Z,31.07
2023-04-21T14:07:36.520Z,31.27
2023-04-21T14:10:04.303Z,30.33
2023-04-21T14:12:31.017Z,29.84
2023-04-21T14:14:57.663Z,28.70
2023-04-21T14:17:24.337Z,27.68
2023-04-21T14:19:52.520Z,27.55
2023-04-21T14:22:20.651Z,26.82
2023-04-21T14:24:47.268Z,26.26
2023-04-21T14:27:14.458Z,25.92
2023-04-21T14:29:41.188Z,24.25
2023-04-21T14:32:07.952Z,24.30
2023-04-21T14:34:34.758Z,23.31
2023-04-21T14:37:01.635Z,23.19
2023-04-21T14:39:28.240Z,22.93
2023-04-21T14:41:55.354Z,23.28
2023-04-21T14:44:21.915Z,23.30
2023-04-21T14:47:01.014Z,23.39
2023-04-21T14:49:35.495Z,24.85
2023-04-21T14:52:03.492Z,24.88
2023-04-21T14:54:30.153Z,26.36
2023-04-21T14:57:10.491Z,25.70
2023-04-21T14:59:46.530Z,26.13
2023-04-21T15:02:13.741Z,25.65
2023-04-21T15:04:40.775Z,25.75
2023-04-21T15:07:07.422Z,26.58
2023-04-21T15:09:35.573Z,25.91
2023-04-21T15:12:02.768Z,25.23
2023-04-21T15:14:29.388Z,25.37
2023-04-21T15:16:56.050Z,25.22
2023-04-21T15:19:31.328Z,24.97
2023-04-21T15:21:58.295Z,26.14
2023-04-21T15:24:24.844Z,25.90
2023-04-21T15:26:51.404Z,25.64
2023-04-21T15:29:17.923Z,27.67
2023-04-21T15:31:44.823Z,28.42
2023-04-21T15:34:11.517Z,28.59
2023-04-21T15:36:38.035Z,29.20
2023-04-21T15:39:04.568Z,28.61
2023-04-21T15:41:31.560Z,29.13
2023-04-21T15:44:00.089Z,28.95
2023-04-21T15:46:26.744Z,28.88
2023-04-21T15:48:53.460Z,28.71
2023-04-21T15:51:20.441Z,29.17
2023-04-21T15:53:47.848Z,29.03
2023-04-21T15:56:15.703Z,28.43
2023-04-21T15:58:42.428Z,28.36
2023-04-21T16:01:09.163Z,28.41
2023-04-21T16:03:36.417Z,28.51
2023-04-21T16:06:03.283Z,28.58
2023-04-21T16:08:31.519Z,27.65
2023-04-21T16:10:58.099Z,28.33
2023-04-21T16:13:26.190Z,28.26
2023-04-21T16:15:52.794Z,28.70
2023-04-21T16:18:19.476Z,28.34
2023-04-21T16:20:46.555Z,28.02
2023-04-21T16:23:13.978Z,28.46
2023-04-21T16:25:40.990Z,27.90
2023-04-21T16:28:09.047Z,28.51
2023-04-21T16:30:36.216Z,28.38
2023-04-21T16:33:03.062Z,28.79
2023-04-21T16:35:29.808Z,29.63
2023-04-21T16:37:56.592Z,29.27
2023-04-21T16:40:24.518Z,29.70
2023-04-21T16:42:51.177Z,29.61
2023-04-21T16:45:17.873Z,29.80
2023-04-21T16:47:44.610Z,29.57
2023-04-21T16:50:11.418Z,29.14
2023-04-21T16:52:37.966Z,28.84
2023-04-21T16:55:04.880Z,28.22
2023-04-21T16:57:31.463Z,27.72
2023-04-21T16:59:59.069Z,28.22
2023-04-21T17:02:25.924Z,27.92
2023-04-21T17:04:52.687Z,28.22
2023-04-21T17:07:19.299Z,27.94
2023-04-21T17:09:45.891Z,28.32
2023-04-21T17:12:12.509Z,28.02
2023-04-21T17:14:39.461Z,27.11
2023-04-21T17:17:06.409Z,28.16
2023-04-21T17:19:33.037Z,29.14
2023-04-21T17:21:59.806Z,29.30
2023-04-21T17:24:29.543Z,28.87
2023-04-21T17:26:59.676Z,27.97
2023-04-21T17:29:26.869Z,27.93
2023-04-21T17:31:53.698Z,28.57
2023-04-21T17:34:20.416Z,27.69
2023-04-21T17:36:46.952Z,27.85
2023-04-21T17:39:14.086Z,28.27
2023-04-21T17:41:41.924Z,27.79
2023-04-21T17:44:08.529Z,27.22
2023-04-21T17:46:35.246Z,26.91
2023-04-21T17:49:01.914Z,27.83
2023-04-21T17:51:28.655Z,28.04
2023-04-21T17:53:55.298Z,27.85
2023-04-21T17:56:22.398Z,28.24
2023-04-21T17:58:49.024Z,28.39
2023-04-21T18:01:15.638Z,28.56
2023-04-21T18:03:43.336Z,29.25
2023-04-21T18:06:11.257Z,28.45
2023-04-21T18:08:38.032Z,28.94
2023-04-21T18:11:04.790Z,29.04
2023-04-21T18:13:31.316Z,28.68
2023-04-21T18:15:58.048Z,19.40
2023-04-21T18:18:25.527Z,10.35
2023-04-21T18:20:52.208Z,8.65
2023-04-21T18:23:18.736Z,7.75
2023-04-21T18:25:46.954Z,7.34
2023-04-21T18:28:14.277Z,7.53
2023-04-21T18:30:41.281Z,7.75
2023-04-21T18:33:09.046Z,7.96
2023-04-21T18:35:35.960Z,8.25
2023-04-21T18:38:02.489Z,7.81
2023-04-21T18:40:29.019Z,8.05
2023-04-21T18:42:56.028Z,8.65
2023-04-21T18:45:22.537Z,8.45
2023-04-21T18:47:49.052Z,8.45
2023-04-21T18:50:15.604Z,8.51
2023-04-21T18:52:42.148Z,9.22
2023-04-21T18:55:09.212Z,8.74
2023-04-21T18:57:35.728Z,9.68
2023-04-21T19:00:02.314Z,9.29
2023-04-21T19:02:29.098Z,9.91
2023-04-21T19:04:55.998Z,9.56
2023-04-21T19:07:22.632Z,9.58
2023-04-21T19:09:49.235Z,9.87
2023-04-21T19:12:16.427Z,9.85
2023-04-21T19:14:47.416Z,9.99
2023-04-21T19:17:14.822Z,10.12
2023-04-21T19:19:41.918Z,9.50
2023-04-21T19:22:08.580Z,10.07
2023-04-21T19:24:35.409Z,10.11
2023-04-21T19:27:03.465Z,10.52
2023-04-21T19:29:30.321Z,10.40
2023-04-21T19:31:56.923Z,10.11
2023-04-21T19:34:23.516Z,10.50
2023-04-21T19:36:51.583Z,10.69
2023-04-21T19:39:18.173Z,10.91
2023-04-21T19:41:44.755Z,11.17
2023-04-21T19:44:11.276Z,11.56
2023-04-21T19:46:37.906Z,11.16
2023-04-21T19:49:04.543Z,11.48
2023-04-21T19:51:31.054Z,12.26
2023-04-21T19:54:10.073Z,11.86
2023-04-21T19:56:38.114Z,12.21
2023-04-21T19:59:05.742Z,11.91
2023-04-21T20:01:33.147Z,11.78
2023-04-21T20:04:00.404Z,11.93
2023-04-21T20:06:28.547Z,12.15
2023-04-21T20:08:55.881Z,11.75
2023-04-21T20:11:23.096Z,11.32
2023-04-21T20:13:49.901Z,11.30
2023-04-21T20:16:18.176Z,11.15
2023-04-21T20:18:44.846Z,10.83
2023-04-21T20:21:11.356Z,11.13
2023-04-21T20:23:37.909Z,11.88
2023-04-21T20:26:04.500Z,11.68
2023-04-21T20:28:32.093Z,11.73
2023-04-21T20:30:58.708Z,12.48
2023-04-21T20:33:25.245Z,12.40
2023-04-21T20:35:52.426Z,12.30
2023-04-21T20:38:19.064Z,11.94
2023-04-21T20:40:46.386Z,12.02
2023-04-21T20:43:13.668Z,12.16
2023-04-21T20:45:41.199Z,11.82
2023-04-21T20:48:07.953Z,12.16
2023-04-21T20:50:34.528Z,12.53
2023-04-21T20:53:02.075Z,14.14
2023-04-21T20:55:28.743Z,14.77
2023-04-21T20:57:55.510Z,14.21
2023-04-21T21:00:22.456Z,14.82
2023-04-21T21:02:49.199Z,14.08
2023-04-21T21:05:15.868Z,13.55
2023-04-21T21:07:42.444Z,12.62
2023-04-21T21:10:11.224Z,12.56
2023-04-21T21:12:37.809Z,12.78
2023-04-21T21:15:05.385Z,12.74
2023-04-21T21:17:32.104Z,13.16
2023-04-21T21:19:58.714Z,12.90
2023-04-21T21:22:25.270Z,12.80
2023-04-21T21:24:51.848Z,12.84
2023-04-21T21:27:18.457Z,12.02
2023-04-21T21:29:45.111Z,11.15
2023-04-21T21:32:11.842Z,11.10
2023-04-21T21:34:38.477Z,10.47
2023-04-21T21:37:05.127Z,10.51
2023-04-21T21:39:31.833Z,10.39
2023-04-21T21:41:58.382Z,9.83
2023-04-21T21:44:24.943Z,9.58
2023-04-21T21:46:51.657Z,9.84
2023-04-21T21:49:18.331Z,10.00
2023-04-21T21:51:44.915Z,10.03
2023-04-21T21:54:11.494Z,9.99
2023-04-21T21:56:38.123Z,10.00
2023-04-21T21:59:04.812Z,9.88
2023-04-21T22:01:31.355Z,9.93
2023-04-21T22:03:57.969Z,10.15
2023-04-21T22:06:26.670Z,9.77
2023-04-21T22:08:53.318Z,9.88
2023-04-21T22:11:20.658Z,9.79
2023-04-21T22:13:47.176Z,9.28
2023-04-21T22:16:13.726Z,9.07
2023-04-21T22:18:40.418Z,8.34
2023-04-21T22:21:06.920Z,7.73
2023-04-21T22:23:33.487Z,8.28
2023-04-21T22:26:00.134Z,8.36
2023-04-21T22:28:26.706Z,8.36
2023-04-21T22:30:53.358Z,8.97
2023-04-21T22:33:19.975Z,8.77
2023-04-21T22:35:46.594Z,9.05
2023-04-21T22:38:13.112Z,8.31
2023-04-21T22:40:39.916Z,9.01
2023-04-21T22:43:06.536Z,8.53
2023-04-21T22:45:33.152Z,9.20
2023-04-21T22:47:59.696Z,9.07
2023-04-21T22:50:26.239Z,9.28
2023-04-21T22:52:52.836Z,9.97
2023-04-21T22:55:19.340Z,9.56
2023-04-21T22:57:46.003Z,9.32
2023-04-21T23:00:12.930Z,9.07
2023-04-21T23:02:39.693Z,8.99
2023-04-21T23:05:06.737Z,8.95
2023-04-21T23:07:33.394Z,9.09
2023-04-21T23:09:59.976Z,9.15
2023-04-21T23:12:26.552Z,10.04
2023-04-21T23:14:53.184Z,10.42
2023-04-21T23:17:19.745Z,10.60
2023-04-21T23:19:46.359Z,10.91
2023-04-21T23:22:12.992Z,10.39
2023-04-21T23:24:39.578Z,10.70
2023-04-21T23:27:06.149Z,10.92
2023-04-21T23:29:32.718Z,10.68
2023-04-21T23:31:59.393Z,10.53
2023-04-21T23:34:25.970Z,10.71
2023-04-21T23:36:52.461Z,11.14
2023-04-21T23:39:21.448Z,11.82
2023-04-21T23:41:48.292Z,12.25
2023-04-21T23:44:14.912Z,12.39
2023-04-21T23:46:41.688Z,10.37
2023-04-21T23:49:08.383Z,10.19
2023-04-21T23:51:35.222Z,11.23
2023-04-21T23:54:02.063Z,10.54
2023-04-21T23:56:29.062Z,11.56
2023-04-21T23:58:55.993Z,10.56
